EPWAEPGD

Guest
Details From EPWA - Warsaw Okecie - Frederic Chopin
To EPGD - Lech Walesa
Flight Number -
Tags Generated
Created
Modified
Stats Distance 160 nm / 297 km
Max Altitude 0 ft / 0 m
Waypoints 3
Social Downloads 0
Likes 0
Share VATSIM

Download

Looking for another format? Having issues loading an existing format? Contact us
Advertisement - Login to hide

Notes

Generated

Route

EPWA R1850 EPGD

ID Type Via Altitude Latitude Longitude Leg Dist Tot Dist Heading (true) Name
O EPWA APT - 0 ft / 0 m 52.17148˚ 20.94671˚ - 0 nm - -
R1850 FIX - 0 ft / 0 m 54.37127˚ 18.49172˚ 158 nm 158 nm 327° / 325° -
O EPGD APT - 0 ft / 0 m 54.38107˚ 18.45205˚ 1 nm 160 nm 293° / 293° -

Altitude Profile

Advertisement - Login to hide

EPWA

Details ICAO EPWA (WAW)
Name WARSZAWA Okecie
Region Poland
Timezone Europe/Warsaw (UTC+1.0)
Stats Elevation 328 ft / 100 m (AMSL)
Location 52.165091° 20.966923°
Runways 2
Magnetic Variation 5.801° E

METAR

EPWA 132300Z 15008KT CAVOK M03/M04 Q1005 NOSIG

Decode

TAF

TAF TAF EPWA 131730Z 1318/1418 17010KT CAVOK BECMG 1403/1406 17015G25KT BKN014 TEMPO 1406/1410 2000 SN SNRA BKN005 BECMG 1409/1412 24010KT TEMPO 1410/1418 4000 RA RASN BR BKN007

Decode

Departure Runways

ID Width Length Bearing (true) Bearing (mag) Surface Threshold Offset Overrun Length
11 164 ft / 50 m 9,163 ft / 2,793 m 114.64° 108.84° Asphalt 0 ft / 0 m 476 ft / 145 m
15 197 ft / 60 m 12,112 ft / 3,692 m 151.85° 146.05° Asphalt 0 ft / 0 m 0 ft / 0 m
29 164 ft / 50 m 9,163 ft / 2,793 m 294.67° 288.87° Asphalt 1,608 ft / 490 m 0 ft / 0 m
33 197 ft / 60 m 12,112 ft / 3,692 m 331.87° 326.07° Asphalt 0 ft / 0 m 0 ft / 0 m

EPGD

Details ICAO EPGD (GDN)
Name LECH WALESA
Region Poland
Timezone Europe/Warsaw (UTC+1.0)
Stats Elevation 489 ft / 149 m (AMSL)
Location 54.376167° 18.471884°
Runways 1
Magnetic Variation 5.450° E

METAR

EPGD 132300Z 17015KT CAVOK M00/M03 Q0997

Decode

TAF

TAF TAF EPGD 131730Z 1318/1418 18014KT 9999 SCT020 PROB40 TEMPO 1318/1410 18018G28KT BECMG 1404/1406 4000 SNRA BR BKN005 PROB40 1406/1411 1200 SN BR BKN002 BECMG 1411/1413 24012KT 9999 NSW BKN012 PROB40 TEMPO 1411/1412 24015G25KT

Decode

Destination Runways

ID Width Length Bearing (true) Bearing (mag) Surface Threshold Offset Overrun Length
11 148 ft / 45 m 9,158 ft / 2,791 m 112.96° 107.51° Asphalt 0 ft / 0 m 0 ft / 0 m
29 148 ft / 45 m 9,158 ft / 2,791 m 293.00° 287.55° Asphalt 0 ft / 0 m 0 ft / 0 m

Approach Navaids

Runway Type Ident Frequency Range Bearing (true) Bearing (mag) Slope Elevation
29 Localiser IGDA 110.30 MHz 18 nm / 33 km 292.96° 287.51° - 489 ft / 149 m (AMSL)
29 Glidescope IGDA 110.30 MHz 10 nm / 19 km 292.98° 287.53° 2.90° 489 ft / 149 m (AMSL)
29 DME IGDA 110.30 MHz 18 nm / 33 km - - - 492 ft / 150 m (AMSL)

Popular Alternatives